메인 페이지
METAR-TAF:

METAR-TAF

공항 :

Moody Air Force Base

Valdosta, 조지아, 미국

위도: 30-58N, 경도: 083-12W, 고도: 71m

현재 날씨관측

예보는 30분 전, 08:55시(UTC)에 발표되었습니다.
4kt
온도 23°C
습도 94%
기압 1018 hPa
시정: 16.1km
맑음

METAR: KVAD 170855Z AUTO 10004KT 10SM CLR 23/22 A3005 RMK AO2 SLP176 T02340218 57012 $

시각: 05:25 (09:25 UTC)

예보

예보는 1 시간 25분 전, 08:00시(UTC)에 발표되었습니다.
예보 대상 시간: 17일 08시부터 18일 14시까지 (UTC)
6kt
시정 10km 이상
고도 5000ft 상공 구름 조금
고도 25000ft 상공 구름 보통
전환 중
17일 13시부터 17일 14시까지 (UTC)
10kt, 순간 최대 풍속 20kt
시정 10km 이상
고도 5000ft 상공 구름 보통
전환 중
17일 19시부터 17일 20시까지 (UTC)
15kt, 순간 최대 풍속 25kt
시정 10km 이상
고도 5000ft 상공 구름 보통
전환 중
17일 23시부터 17일 24시까지 (UTC)
10kt, 순간 최대 풍속 20kt
시정 10km 이상
고도 4000ft 상공 구름 보통
전환 중
18일 07시부터 18일 08시까지 (UTC)
10kt, 순간 최대 풍속 15kt
시정 10km 이상
고도 4000ft 상공 구름 보통

TAF: KVAD 170800Z 1708/1814 09006KT 9999 FEW050 SCT250 QNH3008INS BECMG 1713/1714 08010G20KT 9999 SCT050 QNH3005INS BECMG 1719/1720 08015G25KT 9999 SCT050 QNH3002INS BECMG 1723/1724 09010G20KT 9999 SCT040 QNH3004INS BECMG 1807/1808 08010G15KT 9999 SCT040 QNH3008INS TX33/1720Z TN22/1710Z

4,000개 이상의 공항 관측 자료 및 예보 (METAR 및 TAF 보고).

지도상에서 검색 가능한 기상관측소가 노란 점과 빨간 점으로 표시되어 있습니다.

기상관측소 명을 보려면 표시 위로 마우스를 이동하세요.

날씨 관측과 예보를 보려면 클릭하세요.

지도 변경 : 확대하려면 엑스 표시가 있는 녹색 버튼, 축소하려면 빼기 표시가 있는 녹색 버튼, 다음 페이지의 지도를 보려면 녹색 화살표를 클릭하세요.


METAR-TAF: